Time;durP1;ratioP1;P1;durP2;ratioP2;P2;SDS_P1;SDS_P2;PMS_P1;PMS_P2;Temp;Humidity;BMP_temperature;BMP_pressure;BME280_temperature;BME280_humidity;BME280_pressure;Samples;Min_cycle;Max_cycle;Signal;HPM_P1;HPM_P2
2023/09/29 00:00:13;;;;;;;24.00;14.82;;;16.60;99.90;;;15.68;100.00;101384.75;5008572;28;20029;-80
2023/09/29 00:02:40;;;;;;;16.00;11.98;;;16.50;99.90;;;15.58;99.74;101376.44;4995927;28;20111;-80
2023/09/29 00:05:06;;;;;;;10.38;8.27;;;16.40;99.90;;;15.49;98.64;101376.13;4981599;28;20432;-81
2023/09/29 00:07:34;;;;;;;17.30;11.23;;;16.30;99.90;;;15.41;97.14;101381.00;4992944;28;20052;-81
2023/09/29 00:10:08;;;;;;;13.70;9.98;;;16.30;99.90;;;15.33;96.17;101387.63;4981461;28;20036;-80
2023/09/29 00:12:36;;;;;;;10.65;8.35;;;16.20;99.90;;;15.24;95.97;101376.66;4979669;28;20037;-81
2023/09/29 00:15:09;;;;;;;14.95;12.15;;;16.10;99.90;;;15.18;96.17;101375.19;4967752;28;20034;-80
2023/09/29 00:17:35;;;;;;;17.70;13.98;;;16.00;99.90;;;15.13;96.55;101359.53;5006748;28;20052;-81
2023/09/29 00:20:10;;;;;;;25.77;17.35;;;16.00;99.90;;;15.11;97.84;101360.56;4975964;28;20040;-80
2023/09/29 00:22:38;;;;;;;21.92;17.02;;;16.00;99.90;;;15.10;99.59;101358.88;4978786;28;20037;-80
2023/09/29 00:25:07;;;;;;;24.60;17.02;;;15.90;99.90;;;15.10;100.00;101356.22;4970437;28;20079;-81
2023/09/29 00:27:32;;;;;;;24.45;16.35;;;16.00;99.90;;;15.09;100.00;101352.69;4977532;28;20087;-81
2023/09/29 00:29:58;;;;;;;22.88;15.25;;;16.00;99.90;;;15.09;100.00;101346.53;4959170;28;20033;-80
2023/09/29 00:32:29;;;;;;;23.02;17.20;;;16.00;99.90;;;15.10;100.00;101341.16;4969267;28;20088;-81
2023/09/29 00:34:57;;;;;;;28.17;18.50;;;15.90;99.90;;;15.10;100.00;101338.50;4968191;28;20103;-80
2023/09/29 00:37:23;;;;;;;24.42;17.20;;;16.00;99.90;;;15.12;100.00;101341.06;4982004;28;20044;-79
2023/09/29 00:39:49;;;;;;;25.50;16.50;;;16.00;99.90;;;15.13;100.00;101340.13;4980787;28;20036;-79
2023/09/29 00:42:14;;;;;;;28.63;18.20;;;16.00;99.90;;;15.13;100.00;101334.81;4999084;28;20558;-81
2023/09/29 00:44:45;;;;;;;25.88;17.25;;;16.00;99.90;;;15.15;100.00;101330.28;4961994;28;20045;-80
2023/09/29 00:47:11;;;;;;;24.48;18.27;;;16.00;99.90;;;15.15;100.00;101324.97;4991585;28;20205;-80
2023/09/29 00:49:38;;;;;;;30.02;20.10;;;16.00;99.90;;;15.17;100.00;101328.41;4942540;28;20030;-80
2023/09/29 00:52:04;;;;;;;30.15;20.00;;;16.00;99.90;;;15.19;100.00;101323.84;5004344;28;20485;-81
2023/09/29 00:54:32;;;;;;;27.65;19.88;;;16.10;99.90;;;15.20;100.00;101328.22;5017268;28;21241;-80
2023/09/29 00:57:05;;;;;;;34.67;19.63;;;16.10;99.90;;;15.23;100.00;101322.75;4970985;28;20030;-79
2023/09/29 00:59:34;;;;;;;31.35;21.08;;;16.10;99.90;;;15.24;100.00;101323.59;4970321;28;20053;-81
2023/09/29 01:02:03;;;;;;;27.08;18.33;;;16.10;99.90;;;15.24;100.00;101311.19;5006294;28;20044;-79
2023/09/29 01:04:31;;;;;;;29.10;17.77;;;16.10;99.90;;;15.24;100.00;101324.44;4985106;28;20040;-78
2023/09/29 01:06:57;;;;;;;31.75;19.73;;;16.10;99.90;;;15.25;100.00;101315.56;4996502;28;20037;-80
2023/09/29 01:09:22;;;;;;;29.05;18.40;;;16.10;99.90;;;15.26;100.00;101311.94;5002114;28;20037;-81
2023/09/29 01:11:49;;;;;;;26.02;19.23;;;16.10;99.90;;;15.29;100.00;101306.47;4970175;28;20033;-80
2023/09/29 01:14:15;;;;;;;25.65;18.95;;;16.20;99.90;;;15.33;100.00;101296.53;4987328;28;20040;-81
2023/09/29 01:16:44;;;;;;;29.98;20.08;;;16.20;99.90;;;15.38;100.00;101299.78;4991374;28;20037;-80
2023/09/29 01:19:13;;;;;;;28.77;19.00;;;16.30;99.90;;;15.44;100.00;101293.25;5004378;28;20563;-80
2023/09/29 01:21:41;;;;;;;26.20;18.13;;;16.30;99.90;;;15.51;100.00;101294.63;4929819;28;20467;-79
2023/09/29 01:24:07;;;;;;;30.80;18.38;;;16.40;99.90;;;15.56;100.00;101296.06;4959613;28;20029;-80
2023/09/29 01:26:33;;;;;;;28.45;17.33;;;16.40;99.90;;;15.62;100.00;101296.66;4996522;28;20045;-81
2023/09/29 01:28:59;;;;;;;24.55;16.67;;;16.50;99.90;;;15.65;100.00;101297.31;4973293;28;20042;-79
2023/09/29 01:31:25;;;;;;;30.10;18.58;;;16.50;99.90;;;15.71;100.00;101301.41;4980946;28;20113;-81
2023/09/29 01:33:50;;;;;;;24.80;17.92;;;16.60;99.90;;;15.75;100.00;101297.66;4945345;28;20409;-80
2023/09/29 01:36:16;;;;;;;24.15;17.92;;;16.60;99.90;;;15.78;100.00;101292.16;4973451;28;20523;-78
2023/09/29 01:38:42;;;;;;;30.60;19.13;;;16.60;99.90;;;15.79;100.00;101283.28;4963687;28;20074;-79
2023/09/29 01:41:09;;;;;;;25.17;18.40;;;16.60;99.90;;;15.82;100.00;101284.88;4965120;28;20039;-79
2023/09/29 01:43:34;;;;;;;33.13;19.52;;;16.70;99.90;;;15.83;100.00;101291.88;4956298;28;20022;-80
2023/09/29 01:46:07;;;;;;;29.60;18.90;;;16.70;99.90;;;15.84;100.00;101293.63;4961404;28;20508;-80
2023/09/29 01:48:33;;;;;;;30.58;19.73;;;16.70;99.90;;;15.79;100.00;101299.22;4969173;28;20046;-80
2023/09/29 01:51:05;;;;;;;21.17;16.33;;;16.60;99.90;;;15.74;100.00;101290.63;4965614;28;20044;-79
2023/09/29 01:53:33;;;;;;;27.13;18.08;;;16.60;99.90;;;15.70;100.00;101295.25;4950988;28;20060;-79
2023/09/29 01:55:59;;;;;;;24.65;15.85;;;16.50;99.90;;;15.63;100.00;101293.88;4974008;28;20415;-79
2023/09/29 01:58:27;;;;;;;26.25;18.25;;;16.50;99.90;;;15.56;100.00;101292.56;4999401;28;20064;-80
2023/09/29 02:00:54;;;;;;;22.10;16.08;;;16.40;99.90;;;15.42;100.00;101303.97;4978759;28;20029;-81
2023/09/29 02:03:20;;;;;;;26.25;16.00;;;16.30;99.90;;;15.29;99.30;101306.47;4970685;28;20049;-79
2023/09/29 02:05:48;;;;;;;19.60;15.98;;;16.10;99.90;;;15.15;98.79;101309.06;4923036;28;20042;-79
2023/09/29 02:08:14;;;;;;;21.38;14.50;;;16.00;99.90;;;15.05;98.71;101315.81;4917427;28;20064;-81
2023/09/29 02:10:40;;;;;;;17.92;14.25;;;15.90;99.90;;;14.96;98.10;101309.22;4974057;28;20035;-80
2023/09/29 02:13:07;;;;;;;17.23;13.57;;;15.80;99.90;;;14.89;97.44;101308.72;4972369;28;20034;-81
2023/09/29 02:15:35;;;;;;;23.15;14.60;;;15.80;99.90;;;14.83;97.38;101300.25;4981598;28;20090;-81
2023/09/29 02:18:09;;;;;;;29.88;19.13;;;15.70;99.90;;;14.80;97.47;101306.56;5006628;28;20060;-80
2023/09/29 02:20:38;;;;;;;31.67;22.25;;;15.70;99.90;;;14.78;98.62;101297.84;5013497;28;20044;-79
2023/09/29 02:23:11;;;;;;;31.10;21.38;;;15.70;99.90;;;14.79;100.00;101293.41;4989882;28;20075;-81
2023/09/29 02:25:37;;;;;;;35.53;22.83;;;15.70;99.90;;;14.79;100.00;101296.91;4995189;28;20078;-80
2023/09/29 02:28:03;;;;;;;29.05;18.60;;;15.70;99.90;;;14.82;100.00;101293.25;5011519;28;20065;-80
2023/09/29 02:30:30;;;;;;;27.40;18.35;;;15.70;99.90;;;14.83;100.00;101293.13;5017042;28;20133;-80
2023/09/29 02:32:56;;;;;;;25.00;19.15;;;15.70;99.90;;;14.84;100.00;101292.22;5001155;28;20029;-81
2023/09/29 02:35:25;;;;;;;25.35;17.25;;;15.70;99.90;;;14.84;100.00;101289.56;4971731;28;20072;-81
2023/09/29 02:37:52;;;;;;;39.88;24.08;;;15.70;99.90;;;14.86;100.00;101287.69;4990723;28;20415;-79
2023/09/29 02:40:18;;;;;;;37.53;23.73;;;15.70;99.90;;;14.87;100.00;101284.06;4992071;28;20124;-79
2023/09/29 02:42:44;;;;;;;39.47;24.75;;;15.80;99.90;;;14.89;100.00;101276.91;4974901;28;20049;-81
2023/09/29 02:45:10;;;;;;;39.25;26.42;;;15.80;99.90;;;14.92;100.00;101276.75;5003593;28;20041;-78
2023/09/29 02:47:41;;;;;;;41.90;26.35;;;15.80;99.90;;;14.94;100.00;101269.53;4970086;28;20124;-80
2023/09/29 02:50:11;;;;;;;42.38;25.17;;;15.80;99.90;;;14.95;100.00;101260.66;5015403;28;20075;-80
2023/09/29 02:52:39;;;;;;;43.17;26.27;;;15.80;99.90;;;14.98;100.00;101257.81;4994094;28;20777;-79
2023/09/29 02:55:12;;;;;;;48.20;27.30;;;15.80;99.90;;;15.00;100.00;101256.88;5033604;28;20047;-81
2023/09/29 02:57:40;;;;;;;48.10;27.02;;;15.90;99.90;;;15.02;100.00;101249.69;4981227;28;20124;-79
2023/09/29 03:00:16;;;;;;;41.67;26.23;;;15.90;99.90;;;15.04;100.00;101246.00;4964997;28;20464;-79
2023/09/29 03:02:42;;;;;;;39.67;24.57;;;15.90;99.90;;;15.07;100.00;101240.53;4977786;28;20024;-81
2023/09/29 03:05:09;;;;;;;40.30;26.17;;;15.90;99.90;;;15.08;100.00;101244.06;4983540;28;20131;-79
2023/09/29 03:07:43;;;;;;;47.28;28.35;;;15.90;99.90;;;15.10;100.00;101244.81;4997080;28;20059;-81
2023/09/29 03:10:15;;;;;;;43.53;25.88;;;16.00;99.90;;;15.12;100.00;101248.25;4980566;28;20043;-79
2023/09/29 03:12:46;;;;;;;42.92;25.10;;;16.00;99.90;;;15.12;100.00;101248.25;5004735;28;20119;-81
2023/09/29 03:15:15;;;;;;;45.83;27.05;;;16.00;99.90;;;15.15;100.00;101246.25;4980655;28;20061;-81
2023/09/29 03:17:43;;;;;;;35.78;24.02;;;16.00;99.90;;;15.17;100.00;101240.84;4967728;28;20068;-81
2023/09/29 03:20:15;;;;;;;41.30;26.40;;;16.00;99.90;;;15.18;100.00;101242.56;4996713;28;20708;-80
2023/09/29 03:22:44;;;;;;;41.55;26.27;;;16.00;99.90;;;15.18;100.00;101242.56;4978895;28;20101;-79
2023/09/29 03:25:11;;;;;;;40.90;27.05;;;16.10;99.90;;;15.19;100.00;101246.94;4988895;28;20053;-80
2023/09/29 03:27:45;;;;;;;40.83;26.85;;;16.10;99.90;;;15.21;100.00;101242.41;4996987;28;20477;-80
2023/09/29 03:30:11;;;;;;;34.28;25.00;;;16.10;99.90;;;15.24;100.00;101246.66;5007772;28;20099;-79
2023/09/29 03:32:37;;;;;;;34.03;23.50;;;16.10;99.90;;;15.24;100.00;101252.81;4982094;28;20033;-80
2023/09/29 03:35:05;;;;;;;42.08;26.55;;;16.10;99.90;;;15.28;100.00;101250.84;4965349;28;20079;-80
2023/09/29 03:37:39;;;;;;;31.70;23.00;;;16.10;99.90;;;15.26;100.00;101240.31;4986502;28;20053;-80
2023/09/29 03:40:26;;;;;;;40.60;25.65;;;;;;;15.27;100.00;101238.50;4985890;28;20049;-81
2023/09/29 03:42:55;;;;;;;39.70;24.52;;;16.10;99.90;;;15.25;100.00;101241.28;5002334;28;20040;-79
2023/09/29 03:45:21;;;;;;;39.88;25.67;;;16.10;99.90;;;15.26;100.00;101232.34;4988221;28;20045;-81
2023/09/29 03:47:47;;;;;;;43.70;26.48;;;16.10;99.90;;;15.23;100.00;101237.84;4970869;28;20044;-80
2023/09/29 03:50:12;;;;;;;42.75;26.05;;;16.10;99.90;;;15.25;100.00;101238.63;4944386;28;20081;-81
2023/09/29 03:52:39;;;;;;;35.97;22.75;;;16.10;99.90;;;15.25;100.00;101238.63;4967941;28;20148;-80
2023/09/29 03:55:14;;;;;;;37.03;24.13;;;;;;;15.27;100.00;101228.78;4988575;28;20033;-81
2023/09/29 03:57:44;;;;;;;37.78;25.45;;;16.10;99.90;;;15.27;100.00;101231.44;5000902;28;20488;-79
2023/09/29 04:00:12;;;;;;;39.80;25.70;;;16.10;99.90;;;15.27;100.00;101230.56;4987555;28;20052;-80
2023/09/29 04:02:49;;;;;;;45.83;26.00;;;16.10;99.90;;;15.28;100.00;101242.88;4972315;28;20044;-80
2023/09/29 04:05:15;;;;;;;37.65;24.90;;;16.10;99.90;;;15.27;100.00;101226.13;4976063;28;20463;-79
2023/09/29 04:07:53;;;;;;;37.42;24.88;;;16.10;99.90;;;15.28;100.00;101221.66;4991375;28;20123;-80
2023/09/29 04:10:20;;;;;;;35.63;23.27;;;16.10;99.90;;;15.25;100.00;101225.34;4978620;28;20056;-79
2023/09/29 04:12:54;;;;;;;36.67;25.50;;;16.10;99.90;;;15.23;100.00;101215.78;4968685;28;20029;-80
2023/09/29 04:15:20;;;;;;;39.55;23.77;;;16.10;99.90;;;15.23;100.00;101221.09;4974268;28;20095;-79
2023/09/29 04:17:46;;;;;;;40.28;23.23;;;16.10;99.90;;;15.23;100.00;101216.63;4993365;28;20041;-81
2023/09/29 04:20:12;;;;;;;33.00;23.95;;;16.10;99.90;;;15.20;100.00;101211.50;4973618;28;20099;-81
2023/09/29 04:22:46;;;;;;;35.05;23.67;;;16.10;99.90;;;15.20;100.00;101208.84;4987082;28;20039;-80
2023/09/29 04:25:12;;;;;;;34.60;22.90;;;16.00;99.90;;;15.18;100.00;101208.06;4962371;28;20068;-80
2023/09/29 04:27:39;;;;;;;35.92;23.35;;;16.10;99.90;;;15.18;100.00;101206.28;5023822;28;20048;-79
2023/09/29 04:30:13;;;;;;;41.45;23.45;;;16.00;99.90;;;15.20;100.00;101208.00;4990568;28;20020;-81
2023/09/29 04:32:39;;;;;;;31.02;22.58;;;16.10;99.90;;;15.16;100.00;101202.88;4990361;28;20148;-79
2023/09/29 04:35:05;;;;;;;32.72;22.38;;;16.10;99.90;;;15.18;100.00;101198.34;4957972;28;20137;-80
2023/09/29 04:37:31;;;;;;;33.92;21.00;;;16.10;99.90;;;15.20;100.00;101200.03;4995767;28;20659;-81
2023/09/29 04:40:05;;;;;;;35.55;22.02;;;16.10;99.90;;;15.21;100.00;101201.75;4972106;28;20037;-80
2023/09/29 04:42:32;;;;;;;28.70;21.10;;;16.10;99.90;;;15.22;100.00;101192.84;4986667;28;20436;-79
2023/09/29 04:44:58;;;;;;;33.65;21.25;;;16.10;99.90;;;15.21;100.00;101194.66;4981363;28;20029;-79
2023/09/29 04:47:24;;;;;;;30.33;20.13;;;16.10;99.90;;;15.21;100.00;101189.34;4964710;28;20059;-80
2023/09/29 04:49:54;;;;;;;28.88;19.88;;;16.10;99.90;;;15.20;100.00;101182.31;4941972;28;20511;-79
2023/09/29 04:52:20;;;;;;;33.33;20.33;;;16.10;99.90;;;15.20;100.00;101179.66;5002939;28;20428;-80
2023/09/29 04:54:46;;;;;;;30.83;19.58;;;16.10;99.90;;;15.20;100.00;101184.97;4988147;28;20064;-80
2023/09/29 04:57:12;;;;;;;28.67;20.05;;;16.10;99.90;;;15.21;100.00;101184.03;4979404;28;20033;-81
2023/09/29 04:59:37;;;;;;;28.23;19.70;;;16.10;99.90;;;15.22;100.00;101182.22;4971465;28;20391;-79
2023/09/29 05:02:05;;;;;;;28.23;18.70;;;16.10;99.90;;;15.23;100.00;101179.50;4977436;28;20086;-81
2023/09/29 05:04:36;;;;;;;33.92;19.83;;;16.10;99.90;;;15.25;100.00;101182.03;4971746;28;20033;-80
2023/09/29 05:07:01;;;;;;;29.73;19.80;;;16.10;99.90;;;15.25;100.00;101188.22;4983943;28;20728;-80
2023/09/29 05:09:27;;;;;;;29.05;19.00;;;16.10;99.90;;;15.27;100.00;101185.44;4992688;28;20039;-79
2023/09/29 05:11:53;;;;;;;28.85;19.05;;;16.10;99.90;;;15.27;100.00;101186.34;5009440;28;20033;-80
2023/09/29 05:14:19;;;;;;;30.70;18.75;;;16.20;99.90;;;15.27;100.00;101186.34;4982113;28;20448;-80
2023/09/29 05:16:44;;;;;;;27.30;17.90;;;16.10;99.90;;;15.29;100.00;101187.09;4998942;28;20033;-81
2023/09/29 05:19:17;;;;;;;29.20;17.52;;;16.20;99.90;;;15.28;100.00;101188.03;4971134;28;20049;-80
2023/09/29 05:21:43;;;;;;;23.25;17.48;;;16.20;99.90;;;15.26;100.00;101189.06;5001886;28;20375;-80
2023/09/29 05:24:09;;;;;;;23.65;16.90;;;16.70;99.90;;;15.26;100.00;101191.72;4969152;28;20111;-79
2023/09/29 05:26:35;;;;;;;29.50;19.00;;;16.10;99.90;;;15.23;100.00;101191.91;4970887;28;20045;-80
2023/09/29 05:29:01;;;;;;;26.58;18.15;;;16.20;99.90;;;15.22;100.00;101188.38;4963530;28;20048;-79
2023/09/29 05:31:31;;;;;;;26.23;18.65;;;16.10;99.90;;;15.20;100.00;101184.13;4950965;28;20172;-79
2023/09/29 05:33:57;;;;;;;27.95;18.83;;;16.10;99.90;;;15.18;100.00;101182.44;4963463;28;20038;-80
2023/09/29 05:36:23;;;;;;;25.10;17.17;;;16.10;99.90;;;15.17;100.00;101178.03;4985218;28;20111;-78
2023/09/29 05:38:49;;;;;;;24.17;17.48;;;16.10;99.90;;;15.15;100.00;101185.25;4952711;28;20829;-80
2023/09/29 05:41:15;;;;;;;28.02;17.55;;;16.10;99.90;;;15.16;100.00;101183.44;4965755;28;20041;-81
2023/09/29 05:43:50;;;;;;;26.38;17.08;;;16.10;99.90;;;15.15;100.00;101182.59;4968406;28;20029;-79
2023/09/29 05:46:16;;;;;;;23.27;17.38;;;16.10;99.90;;;15.18;100.00;101184.19;4995016;28;20049;-80
2023/09/29 05:48:41;;;;;;;27.95;16.45;;;16.10;99.90;;;15.19;100.00;101172.66;5022478;28;20037;-80
2023/09/29 05:51:07;;;;;;;32.80;18.05;;;16.10;99.90;;;15.18;100.00;101174.47;4982127;28;20037;-80
2023/09/29 05:53:33;;;;;;;28.08;16.90;;;16.10;99.90;;;15.21;100.00;101175.22;4994673;28;20032;-80
2023/09/29 05:56:08;;;;;;;22.70;16.25;;;16.10;99.90;;;15.22;100.00;101176.94;4959761;28;20540;-80
2023/09/29 05:58:35;;;;;;;27.02;16.77;;;16.20;99.90;;;15.23;100.00;101178.66;4985792;28;20072;-81
2023/09/29 06:01:15;;;;;;;26.33;16.58;;;16.20;99.90;;;15.24;100.00;101178.53;4973001;28;20422;-80
2023/09/29 06:03:41;;;;;;;29.58;16.70;;;16.20;99.90;;;15.26;100.00;101181.94;5017682;28;20461;-80
2023/09/29 06:06:13;;;;;;;23.48;16.25;;;16.20;99.90;;;15.30;100.00;101188.78;4990214;28;20039;-80
2023/09/29 06:08:39;;;;;;;25.77;16.77;;;16.20;99.90;;;15.32;100.00;101189.56;4989530;28;20055;-80
2023/09/29 06:11:05;;;;;;;24.85;17.20;;;16.20;99.90;;;15.39;100.00;101196.19;4998730;28;20036;-81
2023/09/29 06:13:32;;;;;;;27.67;16.35;;;16.30;99.90;;;15.40;100.00;101186.47;5013534;28;20056;-80
2023/09/29 06:16:05;;;;;;;24.85;16.20;;;16.30;99.90;;;15.48;100.00;101199.25;4993594;28;20037;-80
2023/09/29 06:18:31;;;;;;;27.85;16.90;;;16.40;99.90;;;15.55;100.00;101197.94;5011811;28;20077;-79
2023/09/29 06:20:56;;;;;;;29.42;17.30;;;16.40;99.90;;;15.63;100.00;101194.84;4983172;28;20025;-81
2023/09/29 06:23:22;;;;;;;26.67;16.80;;;16.50;99.90;;;15.70;100.00;101199.69;4995897;28;20044;-81
2023/09/29 06:25:59;;;;;;;24.55;17.60;;;16.40;99.90;;;15.79;100.00;101193.84;5009312;28;20033;-80
2023/09/29 06:28:26;;;;;;;22.92;15.60;;;16.70;99.90;;;15.88;100.00;101194.25;5002138;28;20060;-81
2023/09/29 06:30:56;;;;;;;25.73;16.60;;;16.80;99.90;;;15.99;100.00;101203.22;4967539;28;20088;-81
2023/09/29 06:33:25;;;;;;;22.55;16.02;;;16.90;99.90;;;16.07;100.00;101201.91;5000222;28;20040;-81
2023/09/29 06:35:52;;;;;;;20.65;15.30;;;16.90;99.90;;;16.13;100.00;101205.06;4986753;28;20029;-80
2023/09/29 06:38:18;;;;;;;24.02;16.23;;;17.00;99.90;;;16.21;100.00;101209.88;4950097;28;20536;-79
2023/09/29 06:40:44;;;;;;;26.98;17.33;;;17.10;99.90;;;16.30;100.00;101211.09;4960816;28;20067;-81
2023/09/29 06:43:19;;;;;;;25.45;16.55;;;17.10;99.90;;;16.35;100.00;101201.91;5014719;28;20037;-80
2023/09/29 06:45:45;;;;;;;28.63;17.48;;;17.30;99.90;;;16.40;100.00;101199.78;5001752;28;20031;-82
2023/09/29 06:48:11;;;;;;;26.38;15.95;;;17.30;99.90;;;16.46;100.00;101208.31;4997710;28;20041;-81
2023/09/29 06:50:37;;;;;;;30.02;16.48;;;17.30;99.90;;;16.47;100.00;101205.56;4969003;28;20154;-80
2023/09/29 06:53:08;;;;;;;25.95;16.95;;;17.30;99.90;;;16.48;100.00;101204.63;4995420;28;20041;-81
2023/09/29 06:55:33;;;;;;;26.25;16.75;;;17.30;99.90;;;16.50;100.00;101210.69;4979348;28;20040;-79
2023/09/29 06:57:59;;;;;;;23.50;16.65;;;17.40;99.90;;;16.53;100.00;101218.47;4951528;28;20420;-81
2023/09/29 07:00:25;;;;;;;27.15;17.08;;;17.40;99.90;;;16.56;100.00;101226.22;4992573;28;20045;-81
2023/09/29 07:02:51;;;;;;;25.02;15.82;;;17.40;99.90;;;16.59;100.00;101226.06;5003520;28;20657;-81
2023/09/29 07:05:17;;;;;;;25.75;17.00;;;17.50;99.90;;;16.60;100.00;101225.09;4966791;28;20053;-81
2023/09/29 07:07:52;;;;;;;25.85;16.92;;;17.50;99.90;;;16.61;100.00;101224.16;4996766;28;20049;-80
2023/09/29 07:10:18;;;;;;;30.98;17.27;;;17.50;99.90;;;16.57;100.00;101227.13;5005361;28;20648;-80
2023/09/29 07:12:45;;;;;;;23.73;17.42;;;17.40;99.90;;;16.57;100.00;101227.13;4996370;28;20025;-81
2023/09/29 07:15:16;;;;;;;21.67;16.20;;;17.50;99.90;;;16.58;100.00;101211.03;5001512;28;20533;-80
2023/09/29 07:17:44;;;;;;;24.48;17.02;;;17.50;99.90;;;16.64;100.00;101201.81;4955999;28;20052;-81
2023/09/29 07:20:12;;;;;;;31.98;17.05;;;17.50;99.90;;;16.68;100.00;101211.31;4953104;28;20052;-79
2023/09/29 07:22:48;;;;;;;26.45;16.27;;;17.60;99.90;;;16.75;100.00;101207.28;4981897;28;20072;-81
2023/09/29 07:25:14;;;;;;;23.67;17.07;;;17.60;99.90;;;16.80;100.00;101209.69;4993304;28;20121;-81
2023/09/29 07:27:39;;;;;;;30.23;16.52;;;17.70;99.90;;;16.86;100.00;101221.75;4975479;28;20276;-80
2023/09/29 07:30:11;;;;;;;26.15;16.40;;;17.70;99.90;;;16.88;100.00;101207.38;5010632;28;20503;-80
2023/09/29 07:32:41;;;;;;;24.70;17.48;;;17.70;99.90;;;16.90;100.00;101204.63;4985632;28;20040;-81
2023/09/29 07:35:07;;;;;;;33.22;16.90;;;17.70;99.90;;;16.90;100.00;101217.94;4953653;28;20504;-80
2023/09/29 07:37:38;;;;;;;29.05;16.75;;;17.70;99.90;;;16.91;100.00;101228.47;4966444;28;20045;-82
2023/09/29 07:40:08;;;;;;;25.73;16.35;;;17.80;99.90;;;16.93;100.00;101223.03;4969445;28;20091;-81
2023/09/29 07:42:33;;;;;;;20.73;16.08;;;17.80;99.90;;;16.93;100.00;101223.03;4965595;28;20469;-81
2023/09/29 07:44:59;;;;;;;25.83;17.45;;;17.80;99.90;;;16.94;100.00;101225.59;4937593;28;20049;-80
2023/09/29 07:47:25;;;;;;;22.75;17.02;;;17.80;99.90;;;16.95;100.00;101227.34;4948884;28;20124;-82
2023/09/29 07:49:55;;;;;;;21.95;17.02;;;17.90;99.90;;;17.00;100.00;101229.69;4951037;28;20225;-81
2023/09/29 07:52:27;;;;;;;23.70;17.23;;;17.90;99.90;;;17.03;100.00;101229.47;4968663;28;20045;-79
2023/09/29 07:54:58;;;;;;;26.27;18.00;;;19.30;99.90;;;17.06;100.00;101241.72;5001073;28;20111;-81
2023/09/29 07:57:26;;;;;;;28.38;17.65;;;17.90;99.90;;;17.07;100.00;101235.44;4973380;28;20096;-80
2023/09/29 07:59:52;;;;;;;27.02;17.23;;;17.90;99.90;;;17.09;100.00;101242.38;4944370;28;20034;-80
2023/09/29 08:02:17;;;;;;;25.63;16.85;;;18.00;99.90;;;17.10;100.00;101237.91;4969557;28;20041;-78
2023/09/29 08:04:43;;;;;;;37.47;18.45;;;18.00;99.90;;;17.14;100.00;101234.09;4975511;28;20083;-80
2023/09/29 08:07:11;;;;;;;31.42;18.55;;;18.00;99.90;;;17.18;100.00;101238.25;5005181;28;20525;-79
2023/09/29 08:09:40;;;;;;;24.30;17.17;;;18.00;99.90;;;17.22;100.00;101240.59;4985054;28;20041;-79
2023/09/29 08:12:06;;;;;;;29.35;16.63;;;18.10;99.90;;;17.27;100.00;101234.13;4997911;28;20028;-80
2023/09/29 08:14:32;;;;;;;25.88;17.27;;;18.20;99.90;;;17.32;100.00;101239.97;4971999;28;20025;-80
2023/09/29 08:17:09;;;;;;;25.25;17.60;;;18.20;99.90;;;17.37;100.00;101245.88;5005480;28;20036;-80
2023/09/29 08:19:34;;;;;;;29.17;17.85;;;18.20;99.90;;;17.44;100.00;101241.84;4973032;28;20026;-80
2023/09/29 08:22:00;;;;;;;25.90;17.15;;;18.30;99.90;;;17.51;100.00;101242.28;4991138;28;20042;-78
2023/09/29 08:24:27;;;;;;;34.22;18.00;;;18.40;99.90;;;17.60;100.00;101238.97;4963404;28;20041;-80
2023/09/29 08:27:00;;;;;;;29.25;17.80;;;18.40;99.90;;;17.68;100.00;101236.66;4950509;28;20504;-80
2023/09/29 08:29:26;;;;;;;24.10;17.48;;;18.50;99.90;;;17.76;100.00;101238.78;5021674;28;20140;-80
2023/09/29 08:31:58;;;;;;;28.77;18.13;;;18.60;99.90;;;17.83;100.00;101226.78;4962778;28;20696;-80
2023/09/29 08:34:31;;;;;;;29.67;17.83;;;18.60;99.90;;;17.92;100.00;101230.63;4982920;28;20033;-80
2023/09/29 08:36:58;;;;;;;20.08;15.20;;;18.70;99.90;;;17.97;100.00;101234.69;5003059;28;20172;-78
2023/09/29 08:39:24;;;;;;;21.88;15.52;;;18.80;99.90;;;18.01;100.00;101229.97;4983740;28;20089;-80
2023/09/29 08:42:05;;;;;;;24.48;16.73;;;18.80;99.90;;;18.07;100.00;101228.69;5007914;28;20034;-79
2023/09/29 08:44:37;;;;;;;25.45;15.70;;;18.90;99.90;;;18.13;100.00;101236.28;5009147;28;20117;-79
2023/09/29 08:47:05;;;;;;;25.52;16.02;;;19.00;99.90;;;18.19;100.00;101228.69;5000864;28;20091;-80
2023/09/29 08:49:40;;;;;;;19.95;14.73;;;19.00;99.90;;;18.30;100.00;101238.59;4988557;28;20519;-80
2023/09/29 08:52:10;;;;;;;26.55;15.40;;;19.10;99.90;;;18.36;100.00;101229.31;5006440;28;20048;-80
2023/09/29 08:54:44;;;;;;;20.63;14.73;;;19.20;99.90;;;18.43;100.00;101227.91;4977544;28;20042;-80
2023/09/29 08:57:12;;;;;;;22.42;14.55;;;19.30;99.90;;;18.47;100.00;101226.72;5000149;28;20528;-79
2023/09/29 08:59:41;;;;;;;23.15;15.80;;;19.30;99.90;;;18.58;100.00;101217.94;5003979;28;20048;-79
2023/09/29 09:02:12;;;;;;;20.77;14.80;;;19.40;99.90;;;18.64;100.00;101214.84;4990150;28;20046;-79
2023/09/29 09:04:41;;;;;;;22.17;14.13;;;19.50;99.90;;;18.71;100.00;101215.25;5007187;28;20045;-79
2023/09/29 09:07:13;;;;;;;19.80;14.85;;;19.50;99.90;;;18.76;100.00;101229.09;5010932;28;20041;-79
2023/09/29 09:10:14;;;;;;;23.23;13.35;;;19.60;99.90;;;18.81;100.00;101214.50;5016922;28;20041;-79
2023/09/29 09:12:40;;;;;;;30.15;14.40;;;19.60;99.90;;;18.83;100.00;101219.69;5003887;28;20088;-81
2023/09/29 09:15:08;;;;;;;18.23;13.45;;;19.60;99.90;;;18.82;100.00;101218.84;4991917;28;20044;-81
2023/09/29 09:17:45;;;;;;;25.00;14.70;;;19.60;99.90;;;18.81;100.00;101235.84;4999059;28;20051;-83
2023/09/29 09:20:13;;;;;;;21.38;14.18;;;19.60;99.90;;;18.78;100.00;101219.19;5005237;28;20072;-82
2023/09/29 09:23:04;;;;;;;23.60;13.18;;;19.60;99.90;;;18.78;100.00;101229.88;4992533;28;20594;-82
2023/09/29 09:25:45;;;;;;;26.27;15.00;;;19.60;99.90;;;18.81;100.00;101232.28;5003144;28;20471;-80
2023/09/29 09:28:23;;;;;;;17.92;13.52;;;19.60;99.90;;;18.82;100.00;101221.53;5001131;28;20802;-81
2023/09/29 09:31:02;;;;;;;18.63;13.55;;;19.70;99.90;;;18.86;100.00;101222.16;4999991;28;20040;-82
2023/09/29 09:33:31;;;;;;;24.63;13.82;;;19.70;99.90;;;18.90;100.00;101223.63;5000351;28;20029;-83
2023/09/29 09:36:12;;;;;;;24.95;13.38;;;19.70;99.90;;;18.94;100.00;101225.13;5028632;28;20060;-84
2023/09/29 09:39:08;;;;;;;20.33;13.02;;;19.80;99.90;;;19.02;100.00;101229.88;4968682;28;20034;-84
2023/09/29 09:42:05;;;;;;;21.60;13.53;;;19.90;99.90;;;19.15;100.00;101213.78;4989694;28;20206;-85
2023/09/29 09:44:42;;;;;;;24.33;13.02;;;;;;;19.30;100.00;101220.63;4902300;28;20843;-85
2023/09/29 09:47:25;;;;;;;23.58;12.38;;;;;;;19.41;98.34;101215.31;4872583;29;20674;-84
2023/09/29 09:50:21;;;;;;;19.17;12.23;;;;;;;19.50;96.94;101215.59;4862637;29;20044;-84
2023/09/29 09:53:13;;;;;;;17.77;13.18;;;20.30;99.90;;;19.57;96.23;101219.53;4824818;29;20050;-84
2023/09/29 09:59:36;;;;;;;22.98;13.02;;;;;;;19.71;95.87;101247.88;4749954;29;20047;-84
2023/09/29 10:02:19;;;;;;;18.58;12.55;;;;;;;19.69;94.53;101245.28;4808872;29;20049;-84
2023/09/29 10:08:13;;;;;;;21.15;13.55;;;;;;;19.61;94.58;101250.34;4808686;29;20050;-84
2023/09/29 10:15:17;;;;;;;19.20;13.40;;;20.40;99.90;;;19.54;94.59;101249.97;4731495;30;20105;-83